Time;durP1;ratioP1;P1;durP2;ratioP2;P2;SDS_P1;SDS_P2;PMS_P1;PMS_P2;Temp;Humidity;BMP_temperature;BMP_pressure;BME280_temperature;BME280_humidity;BME280_pressure;Samples;Min_cycle;Max_cycle;Signal;HPM_P1;HPM_P2
2022/03/28 00:01:59;;;;;;;1999.90;999.90;;;;;;;;;;4973746;28;20293;-68
2022/03/28 00:04:44;;;;;;;1999.90;999.90;;;;;;;;;;4973600;28;20697;-69
2022/03/28 00:07:31;;;;;;;1999.90;999.90;;;;;;;;;;4973345;28;20447;-69
2022/03/28 00:10:16;;;;;;;1999.90;999.90;;;;;;;;;;4973454;28;20208;-68
2022/03/28 00:13:01;;;;;;;1999.90;999.90;;;;;;;;;;4971034;28;20331;-70
2022/03/28 00:15:48;;;;;;;1999.90;999.90;;;;;;;;;;4973265;28;20702;-69
2022/03/28 00:18:33;;;;;;;1999.90;999.90;;;;;;;;;;4972471;28;20263;-68
2022/03/28 00:21:19;;;;;;;1999.90;999.90;;;;;;;;;;4973109;28;20215;-69
2022/03/28 00:24:06;;;;;;;1999.90;999.90;;;;;;;;;;4971923;28;20283;-69
2022/03/28 00:26:51;;;;;;;1999.90;999.90;;;;;;;;;;4972956;28;20355;-67
2022/03/28 00:29:36;;;;;;;1999.90;999.90;;;;;;;;;;4972310;28;20210;-67
2022/03/28 00:32:21;;;;;;;1999.90;999.90;;;;;;;;;;4961848;28;20218;-69
2022/03/28 00:35:07;;;;;;;1999.90;999.90;;;;;;;;;;4973610;28;20214;-69
2022/03/28 00:37:53;;;;;;;1999.90;999.90;;;;;;;;;;4971916;28;20203;-69
2022/03/28 00:40:39;;;;;;;1999.90;999.90;;;;;;;;;;4973188;28;20266;-69
2022/03/28 00:43:24;;;;;;;1999.90;999.90;;;;;;;;;;4973018;28;20231;-70
2022/03/28 00:46:09;;;;;;;1999.90;999.90;;;;;;;;;;4973217;28;20576;-69
2022/03/28 00:48:55;;;;;;;1999.90;999.90;;;;;;;;;;4972150;28;20278;-69
2022/03/28 00:51:40;;;;;;;1999.90;999.90;;;;;;;;;;4972579;28;20211;-69
2022/03/28 00:54:25;;;;;;;1999.90;999.90;;;;;;;;;;4973110;28;20310;-68
2022/03/28 00:57:11;;;;;;;1999.90;999.90;;;;;;;;;;4972901;28;20211;-68
2022/03/28 00:59:56;;;;;;;1999.90;999.90;;;;;;;;;;4971777;28;20203;-67
2022/03/28 01:02:41;;;;;;;1999.90;999.90;;;;;;;;;;4976004;28;20227;-68
2022/03/28 01:05:27;;;;;;;1999.90;999.90;;;;;;;;;;4976590;28;20581;-67
2022/03/28 01:08:14;;;;;;;1999.90;999.90;;;;;;;;;;4975949;28;20259;-69
2022/03/28 01:11:01;;;;;;;1999.90;999.90;;;;;;;;;;4976284;28;20893;-68
2022/03/28 01:13:48;;;;;;;1999.90;999.90;;;;;;;;;;4976670;28;20743;-70
2022/03/28 01:18:05;;;;;;;1999.90;999.90;;;;;;;;;;4975586;28;20215;-65
2022/03/28 01:19:38;;;;;;;1999.90;999.90;;;;;;;;;;4974696;28;20210;-70
2022/03/28 01:22:24;;;;;;;1999.90;999.90;;;;;;;;;;4975440;28;20214;-69
2022/03/28 01:25:09;;;;;;;1999.90;999.90;;;;;;;;;;4975035;28;20215;-69
2022/03/28 01:27:54;;;;;;;1999.90;999.90;;;;;;;;;;4972116;28;20231;-69
2022/03/28 01:30:39;;;;;;;1999.90;999.90;;;;;;;;;;4976019;28;20286;-69
2022/03/28 01:33:24;;;;;;;1999.90;999.90;;;;;;;;;;4976062;28;20732;-69
2022/03/28 01:36:09;;;;;;;1999.90;999.90;;;;;;;;;;4976632;28;20209;-68
2022/03/28 01:38:55;;;;;;;1999.90;999.90;;;;;;;;;;4975608;28;20299;-69
2022/03/28 01:41:40;;;;;;;1999.90;999.90;;;;;;;;;;4976265;28;20210;-69
2022/03/28 01:44:27;;;;;;;1999.90;999.90;;;;;;;;;;4975774;28;20224;-69
2022/03/28 01:47:12;;;;;;;1999.90;999.90;;;;;;;;;;4976112;28;20231;-68
2022/03/28 01:49:57;;;;;;;1999.90;999.90;;;;;;;;;;4975330;28;20210;-69
2022/03/28 01:52:42;;;;;;;1999.90;999.90;;;;;;;;;;4976000;28;20224;-69
2022/03/28 01:55:28;;;;;;;1999.90;999.90;;;;;;;;;;4975965;28;20593;-69
2022/03/28 01:58:13;;;;;;;1999.90;999.90;;;;;;;;;;4975146;28;20759;-70
2022/03/28 02:00:58;;;;;;;1999.90;999.90;;;;;;;;;;4975905;28;20207;-69
2022/03/28 02:03:43;;;;;;;1999.90;999.90;;;;;;;;;;4975666;28;20237;-69
2022/03/28 02:06:28;;;;;;;1999.90;999.90;;;;;;;;;;4975348;28;20223;-69
2022/03/28 02:09:13;;;;;;;1999.90;999.90;;;;;;;;;;4974505;28;20360;-69
2022/03/28 02:11:59;;;;;;;1999.90;999.90;;;;;;;;;;4974688;28;20214;-69
2022/03/28 02:14:44;;;;;;;1999.90;999.90;;;;;;;;;;4975634;28;20214;-70
2022/03/28 02:17:30;;;;;;;1999.90;999.90;;;;;;;;;;4975310;28;20701;-68
2022/03/28 02:20:16;;;;;;;1999.90;999.90;;;;;;;;;;4975516;28;20709;-69
2022/03/28 02:23:01;;;;;;;1999.90;999.90;;;;;;;;;;4975025;28;20331;-69
2022/03/28 02:25:46;;;;;;;1999.90;999.90;;;;;;;;;;4975537;28;20211;-70
2022/03/28 02:28:33;;;;;;;1999.90;999.90;;;;;;;;;;4955033;29;20226;-69
2022/03/28 02:31:18;;;;;;;1999.90;999.90;;;;;;;;;;4956169;29;20345;-69
2022/03/28 02:34:03;;;;;;;1999.90;999.90;;;;;;;;;;4972578;28;20596;-69
2022/03/28 02:36:48;;;;;;;1999.90;999.90;;;;;;;;;;4975036;28;20234;-69
2022/03/28 02:39:32;;;;;;;1999.90;999.90;;;;;;;;;;4973850;28;20289;-69
2022/03/28 02:42:22;;;;;;;1999.90;999.90;;;;;;;;;;4975110;28;20210;-69
2022/03/28 02:45:09;;;;;;;1999.90;999.90;;;;;;;;;;4973407;28;20435;-69
2022/03/28 02:47:54;;;;;;;1999.90;999.90;;;;;;;;;;4974336;28;21290;-70
2022/03/28 02:50:39;;;;;;;1999.90;999.90;;;;;;;;;;4974841;28;20224;-69
2022/03/28 02:53:24;;;;;;;1999.90;999.90;;;;;;;;;;4974456;28;20516;-69
2022/03/28 02:56:09;;;;;;;1999.90;999.90;;;;;;;;;;4974740;28;20679;-69
2022/03/28 02:58:54;;;;;;;1999.90;999.90;;;;;;;;;;4974178;28;20315;-69
2022/03/28 03:01:41;;;;;;;1999.90;999.90;;;;;;;;;;4974862;28;20263;-70
2022/03/28 03:04:26;;;;;;;1999.90;999.90;;;;;;;;;;4974091;28;20245;-69
2022/03/28 03:07:11;;;;;;;1999.90;999.90;;;;;;;;;;4974693;28;20692;-69
2022/03/28 03:09:56;;;;;;;1999.90;999.90;;;;;;;;;;4973092;28;20331;-69
2022/03/28 03:12:41;;;;;;;1999.90;999.90;;;;;;;;;;4954230;29;20919;-69
2022/03/28 03:15:26;;;;;;;1999.90;999.90;;;;;;;;;;4971790;28;20245;-69
2022/03/28 03:18:12;;;;;;;1999.90;999.90;;;;;;;;;;4973828;28;20703;-69
2022/03/28 03:20:58;;;;;;;1999.90;999.90;;;;;;;;;;4974424;28;20204;-69
2022/03/28 03:23:43;;;;;;;1999.90;999.90;;;;;;;;;;4973632;28;20268;-69
2022/03/28 03:26:28;;;;;;;1999.90;999.90;;;;;;;;;;4974255;28;20214;-69
2022/03/28 03:29:13;;;;;;;1999.90;999.90;;;;;;;;;;4973376;28;20293;-69
2022/03/28 03:31:58;;;;;;;1999.90;999.90;;;;;;;;;;4974043;28;20209;-69
2022/03/28 03:34:44;;;;;;;1999.90;999.90;;;;;;;;;;4974115;28;20222;-69
2022/03/28 03:37:29;;;;;;;1999.90;999.90;;;;;;;;;;4974030;28;20336;-69
2022/03/28 03:40:14;;;;;;;1999.90;999.90;;;;;;;;;;4973964;28;20248;-69
2022/03/28 03:42:59;;;;;;;1999.90;999.90;;;;;;;;;;4974036;28;20304;-69
2022/03/28 03:45:44;;;;;;;1999.90;999.90;;;;;;;;;;4974059;28;20696;-69
2022/03/28 03:48:29;;;;;;;1999.90;999.90;;;;;;;;;;4973149;28;20265;-69
2022/03/28 03:51:16;;;;;;;1999.90;999.90;;;;;;;;;;4973954;28;20209;-70
2022/03/28 03:54:01;;;;;;;1999.90;999.90;;;;;;;;;;4973841;28;20277;-69
2022/03/28 03:56:46;;;;;;;1999.90;999.90;;;;;;;;;;4973898;28;20279;-69
2022/03/28 03:59:31;;;;;;;1999.90;999.90;;;;;;;;;;4973083;28;20205;-70
2022/03/28 04:02:16;;;;;;;1999.90;999.90;;;;;;;;;;4973865;28;20345;-69
2022/03/28 04:05:01;;;;;;;1999.90;999.90;;;;;;;;;;4973742;28;20210;-69
2022/03/28 04:07:49;;;;;;;1999.90;999.90;;;;;;;;;;4972987;28;20378;-69
2022/03/28 04:10:34;;;;;;;1999.90;999.90;;;;;;;;;;4973785;28;20754;-69
2022/03/28 04:13:19;;;;;;;1999.90;999.90;;;;;;;;;;4973603;28;20312;-69
2022/03/28 04:16:04;;;;;;;1999.90;999.90;;;;;;;;;;4972560;28;20522;-69
2022/03/28 04:18:49;;;;;;;1999.90;999.90;;;;;;;;;;4972750;28;20206;-69
2022/03/28 04:21:34;;;;;;;1999.90;999.90;;;;;;;;;;4973484;28;20688;-70
2022/03/28 04:24:20;;;;;;;1999.90;999.90;;;;;;;;;;4973287;28;20253;-69
2022/03/28 04:27:05;;;;;;;1999.90;999.90;;;;;;;;;;4973451;28;20214;-70
2022/03/28 04:29:51;;;;;;;1999.90;999.90;;;;;;;;;;4972340;28;20727;-70
2022/03/28 04:32:36;;;;;;;1999.90;999.90;;;;;;;;;;4973238;28;20236;-69
2022/03/28 04:35:20;;;;;;;1999.90;999.90;;;;;;;;;;4973041;28;20213;-69
2022/03/28 04:38:06;;;;;;;1999.90;999.90;;;;;;;;;;4972519;28;20328;-70
2022/03/28 04:40:53;;;;;;;1999.90;999.90;;;;;;;;;;4972751;28;20215;-70
2022/03/28 04:43:38;;;;;;;1999.90;999.90;;;;;;;;;;4973014;28;20767;-70
2022/03/28 04:46:23;;;;;;;1999.90;999.90;;;;;;;;;;4973266;28;20754;-70
2022/03/28 04:49:10;;;;;;;1999.90;999.90;;;;;;;;;;4972256;28;20241;-69
2022/03/28 04:51:55;;;;;;;1999.90;999.90;;;;;;;;;;4973195;28;20205;-69
2022/03/28 04:54:40;;;;;;;1999.90;999.90;;;;;;;;;;4973083;28;20357;-69
2022/03/28 04:57:26;;;;;;;1999.90;999.90;;;;;;;;;;4972746;28;20335;-69
2022/03/28 05:00:12;;;;;;;1999.90;999.90;;;;;;;;;;4972361;28;20228;-69
2022/03/28 05:02:57;;;;;;;1999.90;999.90;;;;;;;;;;4972849;28;20320;-69
2022/03/28 05:05:42;;;;;;;1999.90;999.90;;;;;;;;;;4973030;28;20211;-69
2022/03/28 05:08:27;;;;;;;1999.90;999.90;;;;;;;;;;4972119;28;20204;-69
2022/03/28 05:11:12;;;;;;;1999.90;999.90;;;;;;;;;;4972728;28;20686;-69
2022/03/28 05:14:00;;;;;;;1999.90;999.90;;;;;;;;;;4972949;28;20726;-69
2022/03/28 05:16:45;;;;;;;1999.90;999.90;;;;;;;;;;4972979;28;20205;-69
2022/03/28 05:19:30;;;;;;;1999.90;999.90;;;;;;;;;;4972203;28;20690;-69
2022/03/28 05:22:15;;;;;;;1999.90;999.90;;;;;;;;;;4972829;28;20722;-69
2022/03/28 05:25:00;;;;;;;1999.90;999.90;;;;;;;;;;4972634;28;20213;-70
2022/03/28 05:27:46;;;;;;;1999.90;999.90;;;;;;;;;;4953229;28;20220;-69
2022/03/28 05:30:32;;;;;;;1999.90;999.90;;;;;;;;;;4970177;28;20348;-70
2022/03/28 05:33:17;;;;;;;1999.90;999.90;;;;;;;;;;4972781;28;20316;-70
2022/03/28 05:36:02;;;;;;;1999.90;999.90;;;;;;;;;;4972475;28;20205;-69
2022/03/28 05:38:47;;;;;;;1999.90;999.90;;;;;;;;;;4971908;28;20283;-69
2022/03/28 05:41:32;;;;;;;1999.90;999.90;;;;;;;;;;4972189;28;20212;-69
2022/03/28 05:44:18;;;;;;;1999.90;999.90;;;;;;;;;;4972679;28;20235;-68
2022/03/28 05:47:05;;;;;;;1999.90;999.90;;;;;;;;;;4972623;28;20772;-68
2022/03/28 05:49:50;;;;;;;1999.90;999.90;;;;;;;;;;4974953;28;20672;-67
2022/03/28 05:52:37;;;;;;;1999.90;999.90;;;;;;;;;;4976024;28;20236;-69
2022/03/28 05:55:22;;;;;;;1999.90;999.90;;;;;;;;;;4976129;28;20275;-68
2022/03/28 05:58:08;;;;;;;1999.90;999.90;;;;;;;;;;4974756;28;20208;-69
2022/03/28 06:00:53;;;;;;;1999.90;999.90;;;;;;;;;;4966056;28;20208;-69
2022/03/28 06:03:40;;;;;;;1999.90;999.90;;;;;;;;;;4975733;28;20235;-68
2022/03/28 06:06:26;;;;;;;1999.90;999.90;;;;;;;;;;4956562;29;20694;-68
2022/03/28 06:09:11;;;;;;;1999.90;999.90;;;;;;;;;;4961582;28;20224;-68
2022/03/28 06:11:56;;;;;;;1999.90;999.90;;;;;;;;;;4972559;28;20284;-68
2022/03/28 06:14:41;;;;;;;1999.90;999.90;;;;;;;;;;4971055;28;20323;-67
2022/03/28 06:17:27;;;;;;;1999.90;999.90;;;;;;;;;;4978089;28;20204;-69
2022/03/28 06:20:13;;;;;;;1999.90;999.90;;;;;;;;;;4974132;28;20201;-68
2022/03/28 06:22:58;;;;;;;1999.90;999.90;;;;;;;;;;4974084;28;20726;-68
2022/03/28 06:25:43;;;;;;;1999.90;999.90;;;;;;;;;;4974346;28;20702;-69
2022/03/28 06:28:28;;;;;;;1999.90;999.90;;;;;;;;;;4973506;28;20254;-67
2022/03/28 06:31:13;;;;;;;1999.90;999.90;;;;;;;;;;4974189;28;20204;-69
2022/03/28 06:34:02;;;;;;;1999.90;999.90;;;;;;;;;;4975342;28;20278;-68
2022/03/28 06:36:48;;;;;;;1999.90;999.90;;;;;;;;;;4975314;28;20339;-69
2022/03/28 06:39:34;;;;;;;1999.90;999.90;;;;;;;;;;4974380;28;20336;-66
2022/03/28 06:42:19;;;;;;;1999.90;999.90;;;;;;;;;;4974499;28;20263;-69
2022/03/28 06:45:04;;;;;;;1999.90;999.90;;;;;;;;;;4974506;28;20290;-69
2022/03/28 06:47:51;;;;;;;1999.90;999.90;;;;;;;;;;4972987;28;20230;-66
2022/03/28 06:50:36;;;;;;;1999.90;999.90;;;;;;;;;;4974481;28;20224;-69
2022/03/28 06:53:23;;;;;;;1999.90;999.90;;;;;;;;;;4975400;28;20272;-69
2022/03/28 06:56:08;;;;;;;1999.90;999.90;;;;;;;;;;4974901;28;20223;-70
2022/03/28 06:58:53;;;;;;;1999.90;999.90;;;;;;;;;;4974142;28;20308;-69
2022/03/28 07:01:38;;;;;;;1999.90;999.90;;;;;;;;;;4974695;28;20224;-69
2022/03/28 07:04:24;;;;;;;1999.90;999.90;;;;;;;;;;4990300;28;20813;-69
2022/03/28 07:07:09;;;;;;;1999.90;999.90;;;;;;;;;;4976082;28;20212;-69
2022/03/28 07:09:55;;;;;;;1999.90;999.90;;;;;;;;;;4973982;28;20223;-68
2022/03/28 07:12:41;;;;;;;1999.90;999.90;;;;;;;;;;4974633;28;20252;-66
2022/03/28 07:15:27;;;;;;;1999.90;999.90;;;;;;;;;;4974307;28;20212;-70
2022/03/28 07:18:12;;;;;;;1999.90;999.90;;;;;;;;;;4973603;28;20287;-69
2022/03/28 07:20:57;;;;;;;1999.90;999.90;;;;;;;;;;4974514;28;20682;-69
2022/03/28 07:23:42;;;;;;;1999.90;999.90;;;;;;;;;;4973015;28;20910;-69
2022/03/28 07:26:30;;;;;;;1999.90;999.90;;;;;;;;;;4974194;28;20219;-69
2022/03/28 07:29:17;;;;;;;1999.90;999.90;;;;;;;;;;4972801;28;20227;-69
2022/03/28 07:32:01;;;;;;;1999.90;999.90;;;;;;;;;;4974301;28;20215;-69
2022/03/28 07:34:47;;;;;;;1999.90;999.90;;;;;;;;;;4974163;28;20573;-69
2022/03/28 07:37:32;;;;;;;1999.90;999.90;;;;;;;;;;4973876;28;20209;-68
2022/03/28 07:40:17;;;;;;;1999.90;999.90;;;;;;;;;;4974128;28;20687;-69
2022/03/28 07:43:04;;;;;;;1999.90;999.90;;;;;;;;;;4974060;28;20324;-68
2022/03/28 07:45:52;;;;;;;1999.90;999.90;;;;;;;;;;4972564;28;20874;-69
2022/03/28 07:48:37;;;;;;;1999.90;999.90;;;;;;;;;;4971485;28;20209;-69
2022/03/28 07:51:22;;;;;;;1999.90;999.90;;;;;;;;;;4972486;28;20206;-69
2022/03/28 07:54:07;;;;;;;1999.90;999.90;;;;;;;;;;4973056;28;20608;-69
2022/03/28 07:56:52;;;;;;;1999.90;999.90;;;;;;;;;;4972099;28;20206;-69
2022/03/28 07:59:39;;;;;;;1999.90;999.90;;;;;;;;;;4971471;28;20202;-68
2022/03/28 08:02:25;;;;;;;1999.90;999.90;;;;;;;;;;4980362;28;20446;-68
2022/03/28 08:05:10;;;;;;;1999.90;999.90;;;;;;;;;;4952416;28;20211;-69
2022/03/28 08:07:56;;;;;;;1999.90;999.90;;;;;;;;;;4955916;28;20698;-69
2022/03/28 08:10:41;;;;;;;1999.90;999.90;;;;;;;;;;4959232;28;20224;-69
2022/03/28 08:13:26;;;;;;;1999.90;999.90;;;;;;;;;;4964786;28;20282;-69
2022/03/28 08:16:13;;;;;;;1999.90;999.90;;;;;;;;;;4966452;28;20333;-70
2022/03/28 08:18:58;;;;;;;1999.90;999.90;;;;;;;;;;4951628;28;20709;-70
2022/03/28 08:21:42;;;;;;;1999.90;999.90;;;;;;;;;;4953284;28;20711;-70
2022/03/28 08:24:27;;;;;;;1999.90;999.90;;;;;;;;;;4959916;28;20329;-69
2022/03/28 08:27:12;;;;;;;1999.90;999.90;;;;;;;;;;4965836;28;20730;-70
2022/03/28 08:29:57;;;;;;;1999.90;999.90;;;;;;;;;;4959711;28;20266;-69
2022/03/28 08:32:45;;;;;;;1999.90;999.90;;;;;;;;;;4955076;28;20271;-69
2022/03/28 08:35:31;;;;;;;1999.90;999.90;;;;;;;;;;4952945;28;20216;-70
2022/03/28 08:38:16;;;;;;;1999.90;999.90;;;;;;;;;;4958135;28;20215;-70
2022/03/28 08:41:01;;;;;;;1999.90;999.90;;;;;;;;;;4968576;28;20206;-69
2022/03/28 08:43:46;;;;;;;1999.90;999.90;;;;;;;;;;4961998;28;20731;-70
2022/03/28 08:46:31;;;;;;;1999.90;999.90;;;;;;;;;;4949986;28;20230;-71
2022/03/28 08:49:20;;;;;;;1999.90;999.90;;;;;;;;;;4969664;28;20574;-69
2022/03/28 08:52:05;;;;;;;1999.90;999.90;;;;;;;;;;4955430;28;20211;-69
2022/03/28 08:54:50;;;;;;;1999.90;999.90;;;;;;;;;;4955217;28;20226;-70
2022/03/28 08:57:35;;;;;;;1999.90;999.90;;;;;;;;;;4951338;28;20413;-68
2022/03/28 09:00:20;;;;;;;1999.90;999.90;;;;;;;;;;4956337;28;20214;-69
2022/03/28 09:03:07;;;;;;;1999.90;999.90;;;;;;;;;;4969661;28;20310;-70
2022/03/28 09:05:53;;;;;;;1999.90;999.90;;;;;;;;;;4976830;28;20291;-69
2022/03/28 09:08:40;;;;;;;1999.90;999.90;;;;;;;;;;4968316;28;20214;-69
2022/03/28 09:11:25;;;;;;;1999.90;999.90;;;;;;;;;;4972416;28;20331;-70
2022/03/28 09:14:11;;;;;;;1999.90;999.90;;;;;;;;;;4972591;28;20229;-70
2022/03/28 09:16:59;;;;;;;1999.90;999.90;;;;;;;;;;4972733;28;20710;-70
2022/03/28 09:19:46;;;;;;;1999.90;999.90;;;;;;;;;;4971472;28;20220;-69
2022/03/28 09:22:33;;;;;;;1999.90;999.90;;;;;;;;;;4954279;28;20575;-69
2022/03/28 09:25:19;;;;;;;1999.90;999.90;;;;;;;;;;4967081;28;20295;-69
2022/03/28 09:28:04;;;;;;;1999.90;999.90;;;;;;;;;;4975557;28;20610;-68
2022/03/28 09:30:49;;;;;;;1999.90;999.90;;;;;;;;;;4976162;28;20227;-69
2022/03/28 09:33:50;;;;;;;1999.90;999.90;;;;;;;;;;4976145;28;20229;-68
2022/03/28 09:36:45;;;;;;;1999.90;999.90;;;;;;;;;;4975983;28;20722;-69
2022/03/28 09:39:32;;;;;;;1999.90;999.90;;;;;;;;;;4975320;28;20215;-67
2022/03/28 09:42:17;;;;;;;1999.90;999.90;;;;;;;;;;4975808;28;20212;-70
2022/03/28 09:45:03;;;;;;;1999.90;999.90;;;;;;;;;;4976051;28;20300;-69
2022/03/28 09:47:55;;;;;;;1999.90;999.90;;;;;;;;;;4975592;28;20289;-70
2022/03/28 09:50:40;;;;;;;1999.90;999.90;;;;;;;;;;4975733;28;20222;-68
2022/03/28 09:53:31;;;;;;;1999.90;999.90;;;;;;;;;;4975669;28;20238;-69
2022/03/28 09:56:18;;;;;;;1999.90;999.90;;;;;;;;;;4975861;28;20795;-69
2022/03/28 09:59:04;;;;;;;1999.90;999.90;;;;;;;;;;4975070;28;20210;-68
2022/03/28 10:01:49;;;;;;;1999.90;999.90;;;;;;;;;;4975705;28;20201;-68
2022/03/28 10:04:35;;;;;;;1999.90;999.90;;;;;;;;;;4975515;28;20371;-68
2022/03/28 10:07:21;;;;;;;1999.90;999.90;;;;;;;;;;4975477;28;20342;-68
2022/03/28 10:10:07;;;;;;;1999.90;999.90;;;;;;;;;;4975219;28;20231;-68
2022/03/28 10:12:54;;;;;;;1999.90;999.90;;;;;;;;;;4975484;28;20347;-68
2022/03/28 10:15:40;;;;;;;1999.90;999.90;;;;;;;;;;4975602;28;20215;-69
2022/03/28 10:18:28;;;;;;;1999.90;999.90;;;;;;;;;;4974554;28;20684;-68
2022/03/28 10:21:15;;;;;;;1999.90;999.90;;;;;;;;;;4975610;28;20204;-69
2022/03/28 10:24:04;;;;;;;1999.90;999.90;;;;;;;;;;4975124;28;20244;-68
2022/03/28 10:26:52;;;;;;;1999.90;999.90;;;;;;;;;;4974746;28;20502;-69
2022/03/28 10:29:39;;;;;;;1999.90;999.90;;;;;;;;;;4974583;28;20248;-68
2022/03/28 10:32:24;;;;;;;1999.90;999.90;;;;;;;;;;4975205;28;20289;-69
2022/03/28 10:35:10;;;;;;;1999.90;999.90;;;;;;;;;;4974674;28;20219;-69
2022/03/28 10:38:13;;;;;;;1999.90;999.90;;;;;;;;;;4974491;28;20203;-69
2022/03/28 10:40:59;;;;;;;1999.90;999.90;;;;;;;;;;4974996;28;20196;-68
2022/03/28 10:43:45;;;;;;;1999.90;999.90;;;;;;;;;;4974758;28;20228;-69
2022/03/28 10:46:35;;;;;;;1999.90;999.90;;;;;;;;;;4974546;28;20212;-68
2022/03/28 10:49:24;;;;;;;1999.90;999.90;;;;;;;;;;4974121;28;20569;-68
2022/03/28 10:52:11;;;;;;;1999.90;999.90;;;;;;;;;;4974749;28;20594;-68
2022/03/28 10:54:56;;;;;;;1999.90;999.90;;;;;;;;;;4974670;28;20207;-69
2022/03/28 10:57:41;;;;;;;1999.90;999.90;;;;;;;;;;4974489;28;20230;-68
2022/03/28 11:00:26;;;;;;;1999.90;999.90;;;;;;;;;;4973905;28;20415;-68
2022/03/28 11:03:32;;;;;;;1999.90;999.90;;;;;;;;;;4974624;28;20276;-68
2022/03/28 11:06:19;;;;;;;1999.90;999.90;;;;;;;;;;4974332;28;20215;-68
2022/03/28 11:09:05;;;;;;;1999.90;999.90;;;;;;;;;;4973176;28;20255;-68
2022/03/28 11:11:56;;;;;;;1999.90;999.90;;;;;;;;;;4973876;28;20227;-68
2022/03/28 11:14:43;;;;;;;1999.90;999.90;;;;;;;;;;4974299;28;20207;-69
2022/03/28 11:17:29;;;;;;;1999.90;999.90;;;;;;;;;;4974446;28;20211;-68
2022/03/28 11:20:18;;;;;;;1999.90;999.90;;;;;;;;;;4974075;28;20216;-67
2022/03/28 11:23:08;;;;;;;1999.90;999.90;;;;;;;;;;4974293;28;20706;-68
2022/03/28 11:25:53;;;;;;;1999.90;999.90;;;;;;;;;;4972831;28;20714;-68
2022/03/28 11:28:39;;;;;;;1999.90;999.90;;;;;;;;;;4972710;28;20208;-68
2022/03/28 11:31:25;;;;;;;1999.90;999.90;;;;;;;;;;4975709;28;20220;-68
2022/03/28 11:34:10;;;;;;;1999.90;999.90;;;;;;;;;;4982244;28;20263;-69
2022/03/28 11:36:58;;;;;;;1999.90;999.90;;;;;;;;;;4983851;28;20203;-67
2022/03/28 11:39:53;;;;;;;1999.90;999.90;;;;;;;;;;4974653;28;20286;-68
2022/03/28 11:42:38;;;;;;;1999.90;999.90;;;;;;;;;;4981903;28;20715;-67
2022/03/28 11:45:23;;;;;;;1999.90;999.90;;;;;;;;;;4978985;28;20321;-68
2022/03/28 11:48:08;;;;;;;1999.90;999.90;;;;;;;;;;4971897;28;20212;-68
2022/03/28 11:50:55;;;;;;;1999.90;999.90;;;;;;;;;;4989737;28;20497;-67
2022/03/28 11:53:42;;;;;;;1999.90;999.90;;;;;;;;;;4971796;28;20663;-67
2022/03/28 11:56:29;;;;;;;1999.90;999.90;;;;;;;;;;4970696;28;20208;-67
2022/03/28 11:59:15;;;;;;;1999.90;999.90;;;;;;;;;;4973819;28;20737;-68
2022/03/28 12:02:00;;;;;;;1999.90;999.90;;;;;;;;;;4979289;28;20207;-67
2022/03/28 12:04:46;;;;;;;1999.90;999.90;;;;;;;;;;4975756;28;20227;-67
2022/03/28 12:07:34;;;;;;;1999.90;999.90;;;;;;;;;;4971468;28;20207;-68
2022/03/28 12:10:22;;;;;;;1999.90;999.90;;;;;;;;;;4972451;28;20212;-68
2022/03/28 12:13:09;;;;;;;1999.90;999.90;;;;;;;;;;4987226;28;20371;-67
2022/03/28 12:15:55;;;;;;;1999.90;999.90;;;;;;;;;;4978522;28;20211;-67
2022/03/28 12:18:40;;;;;;;1999.90;999.90;;;;;;;;;;4974659;28;20218;-67
2022/03/28 12:21:26;;;;;;;1999.90;999.90;;;;;;;;;;4982396;28;20571;-68
2022/03/28 12:24:11;;;;;;;1999.90;999.90;;;;;;;;;;4970304;28;20600;-68
2022/03/28 12:27:00;;;;;;;1999.90;999.90;;;;;;;;;;4971961;28;20203;-67
2022/03/28 12:29:45;;;;;;;1999.90;999.90;;;;;;;;;;4975368;28;20220;-69
2022/03/28 12:32:30;;;;;;;1999.90;999.90;;;;;;;;;;4972125;28;20235;-68
2022/03/28 12:35:17;;;;;;;1999.90;999.90;;;;;;;;;;4972616;28;20215;-67
2022/03/28 12:38:04;;;;;;;1999.90;999.90;;;;;;;;;;4970204;28;20279;-67
2022/03/28 12:40:51;;;;;;;1999.90;999.90;;;;;;;;;;4972191;28;20204;-67
2022/03/28 12:43:38;;;;;;;1999.90;999.90;;;;;;;;;;4969532;28;20224;-66
2022/03/28 12:46:23;;;;;;;1999.90;999.90;;;;;;;;;;4982541;28;20231;-66
2022/03/28 12:49:08;;;;;;;1999.90;999.90;;;;;;;;;;4971716;28;20219;-67
2022/03/28 12:51:53;;;;;;;1999.90;999.90;;;;;;;;;;4975649;28;20216;-67
2022/03/28 12:54:38;;;;;;;1999.90;999.90;;;;;;;;;;4972410;28;20271;-67
2022/03/28 12:57:25;;;;;;;1999.90;999.90;;;;;;;;;;4974308;28;20263;-66
2022/03/28 13:00:13;;;;;;;1999.90;999.90;;;;;;;;;;4975313;28;20203;-67
2022/03/28 13:03:01;;;;;;;1999.90;999.90;;;;;;;;;;4983906;28;20227;-66
2022/03/28 13:06:01;;;;;;;1999.90;999.90;;;;;;;;;;4968519;28;20348;-66
2022/03/28 13:08:46;;;;;;;1999.90;999.90;;;;;;;;;;4970509;28;20559;-67
2022/03/28 13:11:32;;;;;;;1999.90;999.90;;;;;;;;;;4974024;28;20239;-67
2022/03/28 13:14:25;;;;;;;1999.90;999.90;;;;;;;;;;4973397;28;20595;-67
2022/03/28 13:17:12;;;;;;;1999.90;999.90;;;;;;;;;;4973303;28;20212;-68
2022/03/28 13:19:58;;;;;;;1999.90;999.90;;;;;;;;;;4970746;28;20211;-64
2022/03/28 13:22:46;;;;;;;1999.90;999.90;;;;;;;;;;4967684;28;20310;-67
2022/03/28 13:25:41;;;;;;;1999.90;999.90;;;;;;;;;;4972629;28;20698;-66
2022/03/28 13:28:28;;;;;;;1999.90;999.90;;;;;;;;;;4971736;28;20208;-67
2022/03/28 13:31:14;;;;;;;1999.90;999.90;;;;;;;;;;4969137;28;20219;-66
2022/03/28 13:34:00;;;;;;;1999.90;999.90;;;;;;;;;;4970209;28;20596;-67
2022/03/28 13:36:45;;;;;;;1999.90;999.90;;;;;;;;;;4969954;28;20252;-67
2022/03/28 13:39:31;;;;;;;1999.90;999.90;;;;;;;;;;4959128;28;20216;-68
2022/03/28 13:42:16;;;;;;;1999.90;999.90;;;;;;;;;;4956473;29;20249;-67
2022/03/28 13:45:01;;;;;;;1999.90;999.90;;;;;;;;;;4956854;29;20259;-66
2022/03/28 13:47:46;;;;;;;1999.90;999.90;;;;;;;;;;4955264;29;20795;-67
2022/03/28 13:50:33;;;;;;;1999.90;999.90;;;;;;;;;;4955920;29;20313;-67
2022/03/28 13:53:18;;;;;;;1999.90;999.90;;;;;;;;;;4955946;29;20256;-67
2022/03/28 13:56:03;;;;;;;1999.90;999.90;;;;;;;;;;4954107;29;20589;-67
2022/03/28 13:58:49;;;;;;;1999.90;999.90;;;;;;;;;;4955975;29;20252;-68
2022/03/28 14:01:34;;;;;;;1999.90;999.90;;;;;;;;;;4956376;29;20204;-68
2022/03/28 14:04:20;;;;;;;1999.90;999.90;;;;;;;;;;4971371;28;20736;-68
2022/03/28 14:07:06;;;;;;;1999.90;999.90;;;;;;;;;;4975347;28;20301;-68
2022/03/28 14:09:51;;;;;;;1999.90;999.90;;;;;;;;;;4973988;28;20259;-67
2022/03/28 14:12:37;;;;;;;1999.90;999.90;;;;;;;;;;4955985;29;20233;-67
2022/03/28 14:15:22;;;;;;;1999.90;999.90;;;;;;;;;;4956265;29;20694;-68
2022/03/28 14:18:07;;;;;;;1999.90;999.90;;;;;;;;;;4973421;28;20572;-66
2022/03/28 14:20:52;;;;;;;1999.90;999.90;;;;;;;;;;4975199;28;20701;-67
2022/03/28 14:23:38;;;;;;;1999.90;999.90;;;;;;;;;;4975146;28;20228;-67
2022/03/28 14:26:23;;;;;;;1999.90;999.90;;;;;;;;;;4974912;28;20758;-68
2022/03/28 14:29:08;;;;;;;1999.90;999.90;;;;;;;;;;4973622;28;20250;-67
2022/03/28 14:31:53;;;;;;;1999.90;999.90;;;;;;;;;;4966431;28;20267;-67
2022/03/28 14:34:38;;;;;;;1999.90;999.90;;;;;;;;;;4975125;28;20231;-66
2022/03/28 14:37:23;;;;;;;1999.90;999.90;;;;;;;;;;4975021;28;20208;-67
2022/03/28 14:40:10;;;;;;;1999.90;999.90;;;;;;;;;;4974663;28;20208;-66
2022/03/28 14:42:55;;;;;;;1999.90;999.90;;;;;;;;;;4975000;28;20581;-68
2022/03/28 14:48:43;;;;;;;1999.90;999.90;;;;;;;;;;4974018;28;20308;-66
2022/03/28 14:51:28;;;;;;;1999.90;999.90;;;;;;;;;;4973686;28;20486;-66
2022/03/28 14:54:13;;;;;;;1999.90;999.90;;;;;;;;;;4974839;28;20223;-66
2022/03/28 14:56:59;;;;;;;1999.90;999.90;;;;;;;;;;4974767;28;20215;-67
2022/03/28 14:59:44;;;;;;;1999.90;999.90;;;;;;;;;;4973902;28;20313;-67
2022/03/28 15:02:30;;;;;;;1999.90;999.90;;;;;;;;;;4974249;28;20316;-67
2022/03/28 15:05:15;;;;;;;1999.90;999.90;;;;;;;;;;4974694;28;20204;-68
2022/03/28 15:07:59;;;;;;;1999.90;999.90;;;;;;;;;;4973843;28;20208;-66
2022/03/28 15:10:45;;;;;;;1999.90;999.90;;;;;;;;;;4973838;28;20255;-67
2022/03/28 15:13:31;;;;;;;1999.90;999.90;;;;;;;;;;4963109;28;20259;-67
2022/03/28 15:16:16;;;;;;;1999.90;999.90;;;;;;;;;;4974524;28;20215;-67
2022/03/28 15:19:02;;;;;;;1999.90;999.90;;;;;;;;;;4954262;28;20299;-68
2022/03/28 15:21:47;;;;;;;1999.90;999.90;;;;;;;;;;4955190;29;20204;-67
2022/03/28 15:24:32;;;;;;;1999.90;999.90;;;;;;;;;;4954099;29;20789;-67
2022/03/28 15:27:17;;;;;;;1999.90;999.90;;;;;;;;;;4955019;29;20204;-67
2022/03/28 15:30:03;;;;;;;1999.90;999.90;;;;;;;;;;4965490;28;20216;-68